sensor_id;sensor_type;location;lat;lon;timestamp;P1;durP1;ratioP1;P2;durP2;ratioP2
9914;SDS011;4996;48.746;9.174;2023-03-20T00:00:42;8.20;;;4.50;;
9914;SDS011;4996;48.746;9.174;2023-03-20T00:03:11;6.47;;;4.30;;
9914;SDS011;4996;48.746;9.174;2023-03-20T00:05:37;4.83;;;3.83;;
9914;SDS011;4996;48.746;9.174;2023-03-20T00:08:03;4.63;;;3.40;;
9914;SDS011;4996;48.746;9.174;2023-03-20T00:10:42;5.07;;;3.37;;
9914;SDS011;4996;48.746;9.174;2023-03-20T00:13:11;7.27;;;4.20;;
9914;SDS011;4996;48.746;9.174;2023-03-20T00:15:43;3.53;;;3.23;;
9914;SDS011;4996;48.746;9.174;2023-03-20T00:18:13;6.77;;;3.53;;
9914;SDS011;4996;48.746;9.174;2023-03-20T00:20:48;5.17;;;3.97;;
9914;SDS011;4996;48.746;9.174;2023-03-20T00:23:14;4.50;;;4.07;;
9914;SDS011;4996;48.746;9.174;2023-03-20T00:25:41;5.47;;;3.70;;
9914;SDS011;4996;48.746;9.174;2023-03-20T00:28:28;6.07;;;4.20;;
9914;SDS011;4996;48.746;9.174;2023-03-20T00:31:02;4.80;;;3.87;;
9914;SDS011;4996;48.746;9.174;2023-03-20T00:33:28;3.73;;;3.43;;
9914;SDS011;4996;48.746;9.174;2023-03-20T00:35:55;4.17;;;3.50;;
9914;SDS011;4996;48.746;9.174;2023-03-20T00:38:22;3.30;;;3.00;;
9914;SDS011;4996;48.746;9.174;2023-03-20T00:40:48;4.87;;;3.40;;
9914;SDS011;4996;48.746;9.174;2023-03-20T00:43:14;4.27;;;3.50;;
9914;SDS011;4996;48.746;9.174;2023-03-20T00:45:40;3.43;;;3.07;;
9914;SDS011;4996;48.746;9.174;2023-03-20T00:48:08;5.00;;;2.73;;
9914;SDS011;4996;48.746;9.174;2023-03-20T00:50:38;5.17;;;3.67;;
9914;SDS011;4996;48.746;9.174;2023-03-20T00:53:05;4.03;;;2.87;;
9914;SDS011;4996;48.746;9.174;2023-03-20T00:55:30;3.50;;;3.20;;
9914;SDS011;4996;48.746;9.174;2023-03-20T00:57:57;4.00;;;3.50;;
9914;SDS011;4996;48.746;9.174;2023-03-20T01:03:15;4.20;;;3.40;;
9914;SDS011;4996;48.746;9.174;2023-03-20T01:05:44;5.87;;;3.70;;
9914;SDS011;4996;48.746;9.174;2023-03-20T01:08:14;4.80;;;3.50;;
9914;SDS011;4996;48.746;9.174;2023-03-20T01:10:44;4.13;;;3.53;;
9914;SDS011;4996;48.746;9.174;2023-03-20T01:13:24;7.53;;;4.63;;
9914;SDS011;4996;48.746;9.174;2023-03-20T01:15:51;5.50;;;3.70;;
9914;SDS011;4996;48.746;9.174;2023-03-20T01:18:18;5.07;;;3.67;;
9914;SDS011;4996;48.746;9.174;2023-03-20T01:20:46;6.20;;;3.07;;
9914;SDS011;4996;48.746;9.174;2023-03-20T01:23:12;3.27;;;2.97;;
9914;SDS011;4996;48.746;9.174;2023-03-20T01:25:38;4.60;;;3.40;;
9914;SDS011;4996;48.746;9.174;2023-03-20T01:28:15;6.00;;;3.93;;
9914;SDS011;4996;48.746;9.174;2023-03-20T01:30:43;3.70;;;3.40;;
9914;SDS011;4996;48.746;9.174;2023-03-20T01:33:17;4.90;;;3.30;;
9914;SDS011;4996;48.746;9.174;2023-03-20T01:35:45;4.30;;;3.57;;
9914;SDS011;4996;48.746;9.174;2023-03-20T01:38:12;4.20;;;3.73;;
9914;SDS011;4996;48.746;9.174;2023-03-20T01:40:43;5.23;;;4.50;;
9914;SDS011;4996;48.746;9.174;2023-03-20T01:43:31;4.10;;;3.70;;
9914;SDS011;4996;48.746;9.174;2023-03-20T01:46:00;5.23;;;3.70;;
9914;SDS011;4996;48.746;9.174;2023-03-20T01:51:14;4.03;;;3.63;;
9914;SDS011;4996;48.746;9.174;2023-03-20T01:53:46;5.30;;;3.50;;
9914;SDS011;4996;48.746;9.174;2023-03-20T01:56:57;4.20;;;3.40;;
9914;SDS011;4996;48.746;9.174;2023-03-20T01:59:42;3.50;;;2.90;;
9914;SDS011;4996;48.746;9.174;2023-03-20T02:02:22;5.03;;;3.30;;
9914;SDS011;4996;48.746;9.174;2023-03-20T02:04:57;4.73;;;2.87;;
9914;SDS011;4996;48.746;9.174;2023-03-20T02:07:27;3.07;;;2.77;;
9914;SDS011;4996;48.746;9.174;2023-03-20T02:09:52;3.00;;;2.60;;
9914;SDS011;4996;48.746;9.174;2023-03-20T02:12:19;3.50;;;2.43;;
9914;SDS011;4996;48.746;9.174;2023-03-20T02:14:45;1.97;;;1.63;;
9914;SDS011;4996;48.746;9.174;2023-03-20T02:17:12;1.90;;;1.60;;
9914;SDS011;4996;48.746;9.174;2023-03-20T02:19:48;3.77;;;1.93;;
9914;SDS011;4996;48.746;9.174;2023-03-20T02:39:23;1.80;;;0.90;;
9914;SDS011;4996;48.746;9.174;2023-03-20T02:44:26;1.07;;;0.80;;
9914;SDS011;4996;48.746;9.174;2023-03-20T02:52:22;0.90;;;0.60;;
9914;SDS011;4996;48.746;9.174;2023-03-20T02:57:50;1.13;;;0.80;;
9914;SDS011;4996;48.746;9.174;2023-03-20T03:00:46;1.33;;;0.87;;
9914;SDS011;4996;48.746;9.174;2023-03-20T03:03:34;1.63;;;0.93;;
9914;SDS011;4996;48.746;9.174;2023-03-20T03:06:35;2.70;;;0.57;;
9914;SDS011;4996;48.746;9.174;2023-03-20T03:09:05;0.60;;;0.50;;
9914;SDS011;4996;48.746;9.174;2023-03-20T03:11:47;0.90;;;0.60;;
9914;SDS011;4996;48.746;9.174;2023-03-20T03:14:19;0.70;;;0.60;;
9914;SDS011;4996;48.746;9.174;2023-03-20T03:16:59;1.03;;;0.50;;
9914;SDS011;4996;48.746;9.174;2023-03-20T03:19:27;0.60;;;0.40;;
9914;SDS011;4996;48.746;9.174;2023-03-20T03:21:53;1.57;;;0.50;;
9914;SDS011;4996;48.746;9.174;2023-03-20T03:24:27;1.10;;;0.60;;
9914;SDS011;4996;48.746;9.174;2023-03-20T03:27:01;1.87;;;0.70;;
9914;SDS011;4996;48.746;9.174;2023-03-20T03:30:01;0.53;;;0.47;;
9914;SDS011;4996;48.746;9.174;2023-03-20T03:32:32;0.97;;;0.87;;
9914;SDS011;4996;48.746;9.174;2023-03-20T03:35:00;1.43;;;0.97;;
9914;SDS011;4996;48.746;9.174;2023-03-20T03:43:13;0.90;;;0.70;;
9914;SDS011;4996;48.746;9.174;2023-03-20T03:45:48;0.70;;;0.60;;
9914;SDS011;4996;48.746;9.174;2023-03-20T03:48:22;0.70;;;0.63;;
9914;SDS011;4996;48.746;9.174;2023-03-20T03:50:56;1.03;;;0.70;;
9914;SDS011;4996;48.746;9.174;2023-03-20T03:53:30;1.57;;;0.80;;
9914;SDS011;4996;48.746;9.174;2023-03-20T03:56:01;0.60;;;0.40;;
9914;SDS011;4996;48.746;9.174;2023-03-20T03:58:32;1.57;;;1.03;;
9914;SDS011;4996;48.746;9.174;2023-03-20T04:01:03;1.33;;;0.80;;
9914;SDS011;4996;48.746;9.174;2023-03-20T04:03:34;1.00;;;0.83;;
9914;SDS011;4996;48.746;9.174;2023-03-20T04:06:02;1.10;;;0.97;;
9914;SDS011;4996;48.746;9.174;2023-03-20T04:08:30;0.67;;;0.57;;
9914;SDS011;4996;48.746;9.174;2023-03-20T04:10:56;1.17;;;1.00;;
9914;SDS011;4996;48.746;9.174;2023-03-20T04:13:21;0.60;;;0.60;;
9914;SDS011;4996;48.746;9.174;2023-03-20T04:15:47;1.00;;;0.87;;
9914;SDS011;4996;48.746;9.174;2023-03-20T04:18:13;0.90;;;0.70;;
9914;SDS011;4996;48.746;9.174;2023-03-20T04:20:40;1.20;;;0.70;;
9914;SDS011;4996;48.746;9.174;2023-03-20T04:23:06;1.00;;;0.90;;
9914;SDS011;4996;48.746;9.174;2023-03-20T04:25:32;0.93;;;0.87;;
9914;SDS011;4996;48.746;9.174;2023-03-20T04:27:58;1.07;;;0.80;;
9914;SDS011;4996;48.746;9.174;2023-03-20T04:30:24;1.37;;;0.97;;
9914;SDS011;4996;48.746;9.174;2023-03-20T04:32:49;0.73;;;0.57;;
9914;SDS011;4996;48.746;9.174;2023-03-20T04:35:15;2.60;;;0.70;;
9914;SDS011;4996;48.746;9.174;2023-03-20T04:37:40;1.47;;;1.03;;
9914;SDS011;4996;48.746;9.174;2023-03-20T04:40:06;0.80;;;0.80;;
9914;SDS011;4996;48.746;9.174;2023-03-20T04:42:32;1.40;;;0.90;;
9914;SDS011;4996;48.746;9.174;2023-03-20T04:44:57;1.03;;;0.90;;
9914;SDS011;4996;48.746;9.174;2023-03-20T04:47:23;0.97;;;0.67;;
9914;SDS011;4996;48.746;9.174;2023-03-20T04:49:48;1.40;;;0.90;;
9914;SDS011;4996;48.746;9.174;2023-03-20T04:52:15;3.87;;;0.83;;
9914;SDS011;4996;48.746;9.174;2023-03-20T04:54:41;0.83;;;0.80;;
9914;SDS011;4996;48.746;9.174;2023-03-20T04:57:06;1.10;;;1.00;;
9914;SDS011;4996;48.746;9.174;2023-03-20T05:02:02;1.07;;;0.83;;
9914;SDS011;4996;48.746;9.174;2023-03-20T05:04:27;0.70;;;0.63;;
9914;SDS011;4996;48.746;9.174;2023-03-20T05:06:53;1.33;;;0.93;;
9914;SDS011;4996;48.746;9.174;2023-03-20T05:09:18;1.07;;;0.60;;
9914;SDS011;4996;48.746;9.174;2023-03-20T05:11:44;1.90;;;0.87;;
9914;SDS011;4996;48.746;9.174;2023-03-20T05:14:09;1.10;;;0.90;;
9914;SDS011;4996;48.746;9.174;2023-03-20T05:16:36;1.10;;;1.00;;
9914;SDS011;4996;48.746;9.174;2023-03-20T05:19:02;1.40;;;1.00;;
9914;SDS011;4996;48.746;9.174;2023-03-20T05:21:27;1.00;;;0.90;;
9914;SDS011;4996;48.746;9.174;2023-03-20T05:23:53;2.43;;;1.03;;
9914;SDS011;4996;48.746;9.174;2023-03-20T05:26:18;1.00;;;0.80;;
9914;SDS011;4996;48.746;9.174;2023-03-20T05:28:44;0.70;;;0.70;;
9914;SDS011;4996;48.746;9.174;2023-03-20T05:31:09;0.93;;;0.83;;
9914;SDS011;4996;48.746;9.174;2023-03-20T05:33:35;1.33;;;1.13;;
9914;SDS011;4996;48.746;9.174;2023-03-20T05:36:01;3.27;;;0.90;;
9914;SDS011;4996;48.746;9.174;2023-03-20T05:38:27;1.07;;;0.97;;
9914;SDS011;4996;48.746;9.174;2023-03-20T05:40:56;1.20;;;1.00;;
9914;SDS011;4996;48.746;9.174;2023-03-20T05:43:22;1.10;;;0.73;;
9914;SDS011;4996;48.746;9.174;2023-03-20T05:45:48;1.47;;;0.80;;
9914;SDS011;4996;48.746;9.174;2023-03-20T05:48:13;1.03;;;0.93;;
9914;SDS011;4996;48.746;9.174;2023-03-20T05:50:39;0.80;;;0.80;;
9914;SDS011;4996;48.746;9.174;2023-03-20T05:53:05;0.87;;;0.70;;
9914;SDS011;4996;48.746;9.174;2023-03-20T05:55:31;0.70;;;0.60;;
9914;SDS011;4996;48.746;9.174;2023-03-20T05:57:57;1.03;;;0.90;;
9914;SDS011;4996;48.746;9.174;2023-03-20T06:00:22;1.10;;;1.00;;
9914;SDS011;4996;48.746;9.174;2023-03-20T06:02:48;1.20;;;1.10;;
9914;SDS011;4996;48.746;9.174;2023-03-20T06:05:14;2.17;;;1.20;;
9914;SDS011;4996;48.746;9.174;2023-03-20T06:07:40;2.03;;;1.07;;
9914;SDS011;4996;48.746;9.174;2023-03-20T06:10:05;1.60;;;1.20;;
9914;SDS011;4996;48.746;9.174;2023-03-20T06:12:31;5.43;;;1.00;;
9914;SDS011;4996;48.746;9.174;2023-03-20T06:14:57;1.17;;;1.07;;
9914;SDS011;4996;48.746;9.174;2023-03-20T06:17:22;2.47;;;1.20;;
9914;SDS011;4996;48.746;9.174;2023-03-20T06:19:48;1.10;;;1.00;;
9914;SDS011;4996;48.746;9.174;2023-03-20T06:22:13;1.57;;;1.20;;
9914;SDS011;4996;48.746;9.174;2023-03-20T06:24:39;3.20;;;1.37;;
9914;SDS011;4996;48.746;9.174;2023-03-20T06:27:05;3.50;;;1.00;;
9914;SDS011;4996;48.746;9.174;2023-03-20T06:29:30;2.10;;;1.10;;
9914;SDS011;4996;48.746;9.174;2023-03-20T06:31:56;1.93;;;1.27;;
9914;SDS011;4996;48.746;9.174;2023-03-20T06:34:21;1.17;;;1.07;;
9914;SDS011;4996;48.746;9.174;2023-03-20T06:36:47;1.20;;;1.10;;
9914;SDS011;4996;48.746;9.174;2023-03-20T06:39:12;1.70;;;1.10;;
9914;SDS011;4996;48.746;9.174;2023-03-20T06:41:38;2.13;;;1.13;;
9914;SDS011;4996;48.746;9.174;2023-03-20T06:44:04;1.33;;;1.00;;
9914;SDS011;4996;48.746;9.174;2023-03-20T06:46:29;2.27;;;1.50;;
9914;SDS011;4996;48.746;9.174;2023-03-20T06:48:55;1.97;;;1.33;;
9914;SDS011;4996;48.746;9.174;2023-03-20T06:51:20;1.60;;;1.10;;
9914;SDS011;4996;48.746;9.174;2023-03-20T06:53:46;1.80;;;1.13;;
9914;SDS011;4996;48.746;9.174;2023-03-20T06:56:12;2.63;;;1.40;;
9914;SDS011;4996;48.746;9.174;2023-03-20T06:58:37;0.90;;;0.90;;
9914;SDS011;4996;48.746;9.174;2023-03-20T07:01:10;1.53;;;1.30;;
9914;SDS011;4996;48.746;9.174;2023-03-20T07:03:38;1.60;;;1.27;;
9914;SDS011;4996;48.746;9.174;2023-03-20T07:06:04;1.17;;;1.07;;
9914;SDS011;4996;48.746;9.174;2023-03-20T07:08:30;3.00;;;1.60;;
9914;SDS011;4996;48.746;9.174;2023-03-20T07:10:57;1.53;;;1.33;;
9914;SDS011;4996;48.746;9.174;2023-03-20T07:13:22;1.67;;;1.40;;
9914;SDS011;4996;48.746;9.174;2023-03-20T07:15:48;2.13;;;1.30;;
9914;SDS011;4996;48.746;9.174;2023-03-20T07:18:14;2.83;;;1.63;;
9914;SDS011;4996;48.746;9.174;2023-03-20T07:20:40;1.50;;;1.20;;
9914;SDS011;4996;48.746;9.174;2023-03-20T07:23:05;1.87;;;1.40;;
9914;SDS011;4996;48.746;9.174;2023-03-20T07:25:31;2.37;;;1.70;;
9914;SDS011;4996;48.746;9.174;2023-03-20T07:27:57;1.50;;;1.37;;
9914;SDS011;4996;48.746;9.174;2023-03-20T07:30:23;1.30;;;1.20;;
9914;SDS011;4996;48.746;9.174;2023-03-20T07:32:48;1.70;;;1.30;;
9914;SDS011;4996;48.746;9.174;2023-03-20T07:35:14;2.90;;;2.10;;
9914;SDS011;4996;48.746;9.174;2023-03-20T07:37:40;2.27;;;1.57;;
9914;SDS011;4996;48.746;9.174;2023-03-20T07:40:05;2.20;;;1.47;;
9914;SDS011;4996;48.746;9.174;2023-03-20T07:42:32;3.90;;;1.73;;
9914;SDS011;4996;48.746;9.174;2023-03-20T07:44:58;2.00;;;1.67;;
9914;SDS011;4996;48.746;9.174;2023-03-20T07:47:23;4.93;;;1.73;;
9914;SDS011;4996;48.746;9.174;2023-03-20T07:49:49;1.70;;;1.17;;
9914;SDS011;4996;48.746;9.174;2023-03-20T07:52:14;2.13;;;1.50;;
9914;SDS011;4996;48.746;9.174;2023-03-20T07:54:41;2.10;;;1.47;;
9914;SDS011;4996;48.746;9.174;2023-03-20T07:57:06;2.27;;;1.70;;
9914;SDS011;4996;48.746;9.174;2023-03-20T07:59:32;1.63;;;1.50;;
9914;SDS011;4996;48.746;9.174;2023-03-20T08:01:57;4.13;;;1.60;;
9914;SDS011;4996;48.746;9.174;2023-03-20T08:04:23;2.20;;;1.93;;
9914;SDS011;4996;48.746;9.174;2023-03-20T08:06:48;4.40;;;1.30;;
9914;SDS011;4996;48.746;9.174;2023-03-20T08:09:15;17.23;;;7.53;;
9914;SDS011;4996;48.746;9.174;2023-03-20T08:11:41;2.93;;;1.70;;
9914;SDS011;4996;48.746;9.174;2023-03-20T08:14:07;3.17;;;1.50;;
9914;SDS011;4996;48.746;9.174;2023-03-20T08:16:32;2.40;;;1.73;;
9914;SDS011;4996;48.746;9.174;2023-03-20T08:18:58;2.60;;;2.00;;
9914;SDS011;4996;48.746;9.174;2023-03-20T08:21:28;1.80;;;1.50;;
9914;SDS011;4996;48.746;9.174;2023-03-20T08:23:55;1.93;;;1.57;;
9914;SDS011;4996;48.746;9.174;2023-03-20T08:26:21;2.40;;;1.70;;
9914;SDS011;4996;48.746;9.174;2023-03-20T08:28:48;2.43;;;1.50;;
9914;SDS011;4996;48.746;9.174;2023-03-20T08:31:13;1.70;;;1.53;;
9914;SDS011;4996;48.746;9.174;2023-03-20T08:33:40;2.30;;;1.73;;
9914;SDS011;4996;48.746;9.174;2023-03-20T08:36:06;2.20;;;1.70;;
9914;SDS011;4996;48.746;9.174;2023-03-20T08:38:32;2.33;;;1.43;;
9914;SDS011;4996;48.746;9.174;2023-03-20T08:40:57;1.73;;;1.57;;
9914;SDS011;4996;48.746;9.174;2023-03-20T08:43:23;2.00;;;1.40;;
9914;SDS011;4996;48.746;9.174;2023-03-20T08:45:48;3.40;;;1.70;;
9914;SDS011;4996;48.746;9.174;2023-03-20T08:48:14;2.07;;;1.17;;
9914;SDS011;4996;48.746;9.174;2023-03-20T08:50:40;2.07;;;1.57;;
9914;SDS011;4996;48.746;9.174;2023-03-20T08:53:06;2.77;;;2.13;;
9914;SDS011;4996;48.746;9.174;2023-03-20T08:55:31;2.07;;;1.33;;
9914;SDS011;4996;48.746;9.174;2023-03-20T08:57:57;3.57;;;1.70;;
9914;SDS011;4996;48.746;9.174;2023-03-20T09:00:23;1.63;;;1.10;;
9914;SDS011;4996;48.746;9.174;2023-03-20T09:02:49;1.60;;;1.23;;
9914;SDS011;4996;48.746;9.174;2023-03-20T09:05:15;6.00;;;1.23;;
9914;SDS011;4996;48.746;9.174;2023-03-20T09:07:41;3.70;;;1.47;;
9914;SDS011;4996;48.746;9.174;2023-03-20T09:10:07;4.20;;;1.73;;
9914;SDS011;4996;48.746;9.174;2023-03-20T09:12:33;1.80;;;1.60;;
9914;SDS011;4996;48.746;9.174;2023-03-20T09:15:00;7.33;;;3.80;;
9914;SDS011;4996;48.746;9.174;2023-03-20T09:17:26;6.03;;;3.17;;
9914;SDS011;4996;48.746;9.174;2023-03-20T09:19:51;2.70;;;1.93;;
9914;SDS011;4996;48.746;9.174;2023-03-20T09:22:17;1.70;;;1.30;;
9914;SDS011;4996;48.746;9.174;2023-03-20T09:24:43;1.30;;;1.17;;
9914;SDS011;4996;48.746;9.174;2023-03-20T09:27:09;2.07;;;1.43;;
9914;SDS011;4996;48.746;9.174;2023-03-20T09:29:38;3.30;;;1.73;;
9914;SDS011;4996;48.746;9.174;2023-03-20T09:32:04;1.80;;;1.70;;
9914;SDS011;4996;48.746;9.174;2023-03-20T09:34:29;2.63;;;1.10;;
9914;SDS011;4996;48.746;9.174;2023-03-20T09:36:55;2.13;;;1.53;;
9914;SDS011;4996;48.746;9.174;2023-03-20T09:39:21;2.93;;;1.47;;
9914;SDS011;4996;48.746;9.174;2023-03-20T09:41:47;1.77;;;1.67;;
9914;SDS011;4996;48.746;9.174;2023-03-20T09:44:20;1.83;;;1.40;;
9914;SDS011;4996;48.746;9.174;2023-03-20T09:49:38;1.70;;;1.60;;
9914;SDS011;4996;48.746;9.174;2023-03-20T09:54:50;1.80;;;1.43;;
9914;SDS011;4996;48.746;9.174;2023-03-20T10:00:00;4.30;;;1.97;;
9914;SDS011;4996;48.746;9.174;2023-03-20T10:02:37;4.77;;;2.07;;
9914;SDS011;4996;48.746;9.174;2023-03-20T10:08:25;2.27;;;1.50;;
9914;SDS011;4996;48.746;9.174;2023-03-20T10:10:59;1.70;;;1.43;;
9914;SDS011;4996;48.746;9.174;2023-03-20T10:13:34;3.47;;;1.70;;
9914;SDS011;4996;48.746;9.174;2023-03-20T10:16:33;2.57;;;1.70;;
9914;SDS011;4996;48.746;9.174;2023-03-20T10:22:22;1.73;;;1.60;;
9914;SDS011;4996;48.746;9.174;2023-03-20T10:25:06;1.97;;;1.77;;
9914;SDS011;4996;48.746;9.174;2023-03-20T10:27:45;2.50;;;1.90;;
9914;SDS011;4996;48.746;9.174;2023-03-20T10:30:25;3.13;;;1.50;;
9914;SDS011;4996;48.746;9.174;2023-03-20T10:33:18;1.90;;;1.30;;
9914;SDS011;4996;48.746;9.174;2023-03-20T10:38:57;2.33;;;1.73;;
9914;SDS011;4996;48.746;9.174;2023-03-20T10:41:41;6.07;;;1.40;;
9914;SDS011;4996;48.746;9.174;2023-03-20T10:44:19;2.13;;;1.37;;
9914;SDS011;4996;48.746;9.174;2023-03-20T10:46:52;2.57;;;1.30;;
9914;SDS011;4996;48.746;9.174;2023-03-20T10:49:26;2.40;;;1.70;;
9914;SDS011;4996;48.746;9.174;2023-03-20T10:52:06;1.57;;;1.40;;
9914;SDS011;4996;48.746;9.174;2023-03-20T10:54:39;1.80;;;1.40;;
9914;SDS011;4996;48.746;9.174;2023-03-20T10:57:13;4.70;;;1.30;;
9914;SDS011;4996;48.746;9.174;2023-03-20T10:59:47;2.23;;;1.30;;
9914;SDS011;4996;48.746;9.174;2023-03-20T11:02:13;3.87;;;1.23;;
9914;SDS011;4996;48.746;9.174;2023-03-20T11:04:41;1.90;;;1.27;;
9914;SDS011;4996;48.746;9.174;2023-03-20T11:12:37;1.67;;;1.20;;
9914;SDS011;4996;48.746;9.174;2023-03-20T11:15:50;1.57;;;1.10;;
9914;SDS011;4996;48.746;9.174;2023-03-20T11:18:00;1.73;;;1.10;;
9914;SDS011;4996;48.746;9.174;2023-03-20T11:20:48;3.60;;;1.37;;
9914;SDS011;4996;48.746;9.174;2023-03-20T11:23:18;2.20;;;1.73;;
9914;SDS011;4996;48.746;9.174;2023-03-20T11:25:50;1.90;;;1.50;;
9914;SDS011;4996;48.746;9.174;2023-03-20T11:28:24;2.57;;;1.87;;
9914;SDS011;4996;48.746;9.174;2023-03-20T11:33:42;2.60;;;1.87;;
9914;SDS011;4996;48.746;9.174;2023-03-20T11:36:20;2.33;;;1.60;;
9914;SDS011;4996;48.746;9.174;2023-03-20T11:38:47;5.37;;;2.60;;
9914;SDS011;4996;48.746;9.174;2023-03-20T11:41:32;3.60;;;3.20;;
9914;SDS011;4996;48.746;9.174;2023-03-20T11:43:58;4.87;;;4.10;;
9914;SDS011;4996;48.746;9.174;2023-03-20T11:46:24;6.50;;;4.37;;
9914;SDS011;4996;48.746;9.174;2023-03-20T11:51:55;5.77;;;4.37;;
9914;SDS011;4996;48.746;9.174;2023-03-20T11:54:24;5.50;;;4.67;;
9914;SDS011;4996;48.746;9.174;2023-03-20T11:56:57;7.60;;;5.10;;
9914;SDS011;4996;48.746;9.174;2023-03-20T11:59:34;6.80;;;3.63;;
9914;SDS011;4996;48.746;9.174;2023-03-20T12:02:02;9.10;;;3.20;;
9914;SDS011;4996;48.746;9.174;2023-03-20T12:04:36;6.17;;;3.60;;
9914;SDS011;4996;48.746;9.174;2023-03-20T12:07:18;6.17;;;4.20;;
9914;SDS011;4996;48.746;9.174;2023-03-20T12:09:51;8.83;;;3.67;;
9914;SDS011;4996;48.746;9.174;2023-03-20T12:12:35;5.13;;;3.93;;
9914;SDS011;4996;48.746;9.174;2023-03-20T12:20:35;3.97;;;3.40;;
9914;SDS011;4996;48.746;9.174;2023-03-20T12:23:30;5.67;;;3.03;;
9914;SDS011;4996;48.746;9.174;2023-03-20T12:29:05;3.57;;;3.27;;
9914;SDS011;4996;48.746;9.174;2023-03-20T12:34:42;6.40;;;3.20;;
9914;SDS011;4996;48.746;9.174;2023-03-20T12:37:17;3.40;;;2.47;;
9914;SDS011;4996;48.746;9.174;2023-03-20T12:39:47;4.33;;;3.40;;
9914;SDS011;4996;48.746;9.174;2023-03-20T12:45:21;4.53;;;3.57;;
9914;SDS011;4996;48.746;9.174;2023-03-20T12:50:41;3.20;;;2.73;;
9914;SDS011;4996;48.746;9.174;2023-03-20T12:58:25;3.03;;;2.47;;
9914;SDS011;4996;48.746;9.174;2023-03-20T13:01:21;6.37;;;2.93;;
9914;SDS011;4996;48.746;9.174;2023-03-20T13:17:38;6.03;;;4.13;;
9914;SDS011;4996;48.746;9.174;2023-03-20T13:20:33;5.20;;;2.80;;
9914;SDS011;4996;48.746;9.174;2023-03-20T13:33:42;8.13;;;3.70;;
9914;SDS011;4996;48.746;9.174;2023-03-20T13:39:26;5.63;;;3.43;;
9914;SDS011;4996;48.746;9.174;2023-03-20T13:41:57;7.80;;;3.47;;
9914;SDS011;4996;48.746;9.174;2023-03-20T13:44:26;5.70;;;3.60;;
9914;SDS011;4996;48.746;9.174;2023-03-20T13:46:54;7.23;;;4.17;;
9914;SDS011;4996;48.746;9.174;2023-03-20T13:49:34;5.83;;;4.30;;
9914;SDS011;4996;48.746;9.174;2023-03-20T13:54:56;8.20;;;3.43;;
9914;SDS011;4996;48.746;9.174;2023-03-20T14:05:43;2.93;;;2.60;;
9914;SDS011;4996;48.746;9.174;2023-03-20T14:11:07;4.20;;;3.10;;
9914;SDS011;4996;48.746;9.174;2023-03-20T14:13:54;4.47;;;2.73;;
9914;SDS011;4996;48.746;9.174;2023-03-20T14:16:22;4.63;;;2.60;;
9914;SDS011;4996;48.746;9.174;2023-03-20T14:19:14;4.10;;;2.97;;
9914;SDS011;4996;48.746;9.174;2023-03-20T14:21:45;3.97;;;2.80;;
9914;SDS011;4996;48.746;9.174;2023-03-20T14:24:12;5.87;;;4.37;;
9914;SDS011;4996;48.746;9.174;2023-03-20T14:26:41;3.50;;;2.53;;
9914;SDS011;4996;48.746;9.174;2023-03-20T14:31:36;3.50;;;2.63;;
9914;SDS011;4996;48.746;9.174;2023-03-20T14:36:44;6.57;;;2.83;;
9914;SDS011;4996;48.746;9.174;2023-03-20T14:47:25;4.63;;;2.80;;
9914;SDS011;4996;48.746;9.174;2023-03-20T14:55:33;3.50;;;2.83;;
9914;SDS011;4996;48.746;9.174;2023-03-20T14:58:35;4.80;;;3.13;;
9914;SDS011;4996;48.746;9.174;2023-03-20T15:01:04;3.20;;;2.03;;
9914;SDS011;4996;48.746;9.174;2023-03-20T15:03:39;3.03;;;2.20;;
9914;SDS011;4996;48.746;9.174;2023-03-20T15:06:06;24.43;;;12.30;;
9914;SDS011;4996;48.746;9.174;2023-03-20T15:08:34;23.47;;;12.43;;
9914;SDS011;4996;48.746;9.174;2023-03-20T15:11:12;12.97;;;7.10;;
9914;SDS011;4996;48.746;9.174;2023-03-20T15:13:39;2.40;;;2.10;;
9914;SDS011;4996;48.746;9.174;2023-03-20T15:16:08;2.33;;;1.70;;
9914;SDS011;4996;48.746;9.174;2023-03-20T15:18:43;2.60;;;1.83;;
9914;SDS011;4996;48.746;9.174;2023-03-20T15:21:16;3.30;;;1.83;;
9914;SDS011;4996;48.746;9.174;2023-03-20T15:23:43;3.07;;;2.00;;
9914;SDS011;4996;48.746;9.174;2023-03-20T15:26:11;3.67;;;2.27;;
9914;SDS011;4996;48.746;9.174;2023-03-20T15:28:39;4.07;;;2.80;;
9914;SDS011;4996;48.746;9.174;2023-03-20T15:31:11;4.00;;;2.50;;
9914;SDS011;4996;48.746;9.174;2023-03-20T15:33:46;3.20;;;2.10;;
9914;SDS011;4996;48.746;9.174;2023-03-20T15:36:20;2.73;;;2.47;;
9914;SDS011;4996;48.746;9.174;2023-03-20T15:38:48;4.57;;;2.60;;
9914;SDS011;4996;48.746;9.174;2023-03-20T15:41:27;2.53;;;2.00;;
9914;SDS011;4996;48.746;9.174;2023-03-20T15:44:10;2.77;;;1.63;;
9914;SDS011;4996;48.746;9.174;2023-03-20T15:46:40;4.03;;;2.10;;
9914;SDS011;4996;48.746;9.174;2023-03-20T15:49:17;2.40;;;1.67;;
9914;SDS011;4996;48.746;9.174;2023-03-20T15:51:43;4.50;;;2.00;;
9914;SDS011;4996;48.746;9.174;2023-03-20T15:54:11;2.60;;;1.10;;
9914;SDS011;4996;48.746;9.174;2023-03-20T15:56:39;2.30;;;1.30;;
9914;SDS011;4996;48.746;9.174;2023-03-20T15:59:09;1.20;;;0.90;;
9914;SDS011;4996;48.746;9.174;2023-03-20T16:01:38;1.77;;;1.27;;
9914;SDS011;4996;48.746;9.174;2023-03-20T16:04:04;2.10;;;1.20;;
9914;SDS011;4996;48.746;9.174;2023-03-20T16:06:29;1.13;;;0.90;;
9914;SDS011;4996;48.746;9.174;2023-03-20T16:09:00;2.93;;;1.07;;
9914;SDS011;4996;48.746;9.174;2023-03-20T16:11:34;2.53;;;1.30;;
9914;SDS011;4996;48.746;9.174;2023-03-20T16:14:02;1.50;;;1.07;;
9914;SDS011;4996;48.746;9.174;2023-03-20T16:16:29;2.67;;;1.30;;
9914;SDS011;4996;48.746;9.174;2023-03-20T16:19:01;2.60;;;1.70;;
9914;SDS011;4996;48.746;9.174;2023-03-20T16:21:32;14.53;;;6.40;;
9914;SDS011;4996;48.746;9.174;2023-03-20T16:24:03;3.47;;;2.07;;
9914;SDS011;4996;48.746;9.174;2023-03-20T16:26:36;2.37;;;1.30;;
9914;SDS011;4996;48.746;9.174;2023-03-20T16:29:05;1.93;;;1.30;;
9914;SDS011;4996;48.746;9.174;2023-03-20T16:31:32;3.67;;;1.80;;
9914;SDS011;4996;48.746;9.174;2023-03-20T16:34:07;2.13;;;1.17;;
9914;SDS011;4996;48.746;9.174;2023-03-20T16:36:36;2.90;;;1.40;;
9914;SDS011;4996;48.746;9.174;2023-03-20T16:39:09;2.70;;;1.60;;
9914;SDS011;4996;48.746;9.174;2023-03-20T16:41:43;2.40;;;1.37;;
9914;SDS011;4996;48.746;9.174;2023-03-20T16:44:14;3.13;;;1.30;;
9914;SDS011;4996;48.746;9.174;2023-03-20T16:51:59;2.30;;;1.50;;
9914;SDS011;4996;48.746;9.174;2023-03-20T16:54:29;2.37;;;1.50;;
9914;SDS011;4996;48.746;9.174;2023-03-20T16:56:57;2.83;;;1.60;;
9914;SDS011;4996;48.746;9.174;2023-03-20T16:59:24;2.17;;;1.40;;
9914;SDS011;4996;48.746;9.174;2023-03-20T17:01:50;1.80;;;1.50;;
9914;SDS011;4996;48.746;9.174;2023-03-20T17:04:31;2.27;;;1.37;;
9914;SDS011;4996;48.746;9.174;2023-03-20T17:06:59;1.77;;;1.33;;
9914;SDS011;4996;48.746;9.174;2023-03-20T17:09:30;2.43;;;1.80;;
9914;SDS011;4996;48.746;9.174;2023-03-20T17:11:58;3.07;;;1.67;;
9914;SDS011;4996;48.746;9.174;2023-03-20T17:14:27;1.37;;;1.20;;
9914;SDS011;4996;48.746;9.174;2023-03-20T17:16:53;2.90;;;1.47;;
9914;SDS011;4996;48.746;9.174;2023-03-20T17:19:21;1.93;;;1.57;;
9914;SDS011;4996;48.746;9.174;2023-03-20T17:21:47;1.63;;;1.13;;
9914;SDS011;4996;48.746;9.174;2023-03-20T17:24:13;2.50;;;1.50;;
9914;SDS011;4996;48.746;9.174;2023-03-20T17:26:40;18.87;;;8.57;;
9914;SDS011;4996;48.746;9.174;2023-03-20T17:29:09;2.20;;;1.67;;
9914;SDS011;4996;48.746;9.174;2023-03-20T17:31:35;3.57;;;1.60;;
9914;SDS011;4996;48.746;9.174;2023-03-20T17:34:01;2.43;;;1.50;;
9914;SDS011;4996;48.746;9.174;2023-03-20T17:36:28;2.80;;;1.93;;
9914;SDS011;4996;48.746;9.174;2023-03-20T17:38:56;1.93;;;1.60;;
9914;SDS011;4996;48.746;9.174;2023-03-20T17:41:22;5.67;;;1.53;;
9914;SDS011;4996;48.746;9.174;2023-03-20T17:43:49;2.70;;;1.60;;
9914;SDS011;4996;48.746;9.174;2023-03-20T17:48:41;1.43;;;1.30;;
9914;SDS011;4996;48.746;9.174;2023-03-20T17:51:07;2.30;;;1.10;;
9914;SDS011;4996;48.746;9.174;2023-03-20T17:53:33;5.20;;;2.50;;
9914;SDS011;4996;48.746;9.174;2023-03-20T17:55:59;5.40;;;3.17;;
9914;SDS011;4996;48.746;9.174;2023-03-20T17:58:24;2.83;;;1.70;;
9914;SDS011;4996;48.746;9.174;2023-03-20T18:00:50;13.40;;;7.87;;
9914;SDS011;4996;48.746;9.174;2023-03-20T18:03:17;4.13;;;2.50;;
9914;SDS011;4996;48.746;9.174;2023-03-20T18:05:44;1.83;;;1.60;;
9914;SDS011;4996;48.746;9.174;2023-03-20T18:08:12;5.60;;;3.20;;
9914;SDS011;4996;48.746;9.174;2023-03-20T18:10:47;5.50;;;2.77;;
9914;SDS011;4996;48.746;9.174;2023-03-20T18:13:14;3.93;;;1.93;;